sensor_id;sensor_type;location;lat;lon;timestamp;P1;durP1;ratioP1;P2;durP2;ratioP2
52934;SDS011;38802;50.198;19.796;2023-09-07T00:15:41;10.70;;;6.90;;
52934;SDS011;38802;50.198;19.796;2023-09-07T00:18:08;9.50;;;5.90;;
52934;SDS011;38802;50.198;19.796;2023-09-07T00:20:36;9.40;;;6.70;;
52934;SDS011;38802;50.198;19.796;2023-09-07T00:23:03;10.80;;;7.30;;
52934;SDS011;38802;50.198;19.796;2023-09-07T00:25:30;10.70;;;6.90;;
52934;SDS011;38802;50.198;19.796;2023-09-07T00:27:57;11.80;;;7.10;;
52934;SDS011;38802;50.198;19.796;2023-09-07T00:30:23;7.40;;;6.30;;
52934;SDS011;38802;50.198;19.796;2023-09-07T00:32:50;7.50;;;6.60;;
52934;SDS011;38802;50.198;19.796;2023-09-07T00:35:17;7.80;;;6.40;;
52934;SDS011;38802;50.198;19.796;2023-09-07T00:37:44;9.30;;;6.80;;
52934;SDS011;38802;50.198;19.796;2023-09-07T00:40:10;10.70;;;7.30;;
52934;SDS011;38802;50.198;19.796;2023-09-07T00:42:37;8.70;;;7.50;;
52934;SDS011;38802;50.198;19.796;2023-09-07T00:45:04;12.00;;;6.80;;
52934;SDS011;38802;50.198;19.796;2023-09-07T00:47:32;8.30;;;7.00;;
52934;SDS011;38802;50.198;19.796;2023-09-07T00:50:02;10.30;;;8.00;;
52934;SDS011;38802;50.198;19.796;2023-09-07T00:52:34;14.60;;;8.20;;
52934;SDS011;38802;50.198;19.796;2023-09-07T00:55:06;9.90;;;7.50;;
52934;SDS011;38802;50.198;19.796;2023-09-07T00:57:34;13.60;;;8.10;;
52934;SDS011;38802;50.198;19.796;2023-09-07T01:00:03;10.10;;;8.10;;
52934;SDS011;38802;50.198;19.796;2023-09-07T01:02:32;9.80;;;7.20;;
52934;SDS011;38802;50.198;19.796;2023-09-07T01:04:59;12.70;;;7.70;;
52934;SDS011;38802;50.198;19.796;2023-09-07T01:07:35;11.70;;;7.80;;
52934;SDS011;38802;50.198;19.796;2023-09-07T01:10:04;8.90;;;7.90;;
52934;SDS011;38802;50.198;19.796;2023-09-07T01:12:33;10.00;;;7.60;;
52934;SDS011;38802;50.198;19.796;2023-09-07T01:14:59;11.40;;;7.60;;
52934;SDS011;38802;50.198;19.796;2023-09-07T01:17:26;8.40;;;7.30;;
52934;SDS011;38802;50.198;19.796;2023-09-07T01:19:55;10.50;;;7.10;;
52934;SDS011;38802;50.198;19.796;2023-09-07T01:22:25;10.40;;;7.10;;
52934;SDS011;38802;50.198;19.796;2023-09-07T01:24:52;10.70;;;6.80;;
52934;SDS011;38802;50.198;19.796;2023-09-07T01:27:19;8.50;;;7.60;;
52934;SDS011;38802;50.198;19.796;2023-09-07T01:29:46;8.60;;;6.90;;
52934;SDS011;38802;50.198;19.796;2023-09-07T01:32:13;8.40;;;6.70;;
52934;SDS011;38802;50.198;19.796;2023-09-07T01:34:40;11.50;;;6.50;;
52934;SDS011;38802;50.198;19.796;2023-09-07T01:37:08;7.60;;;6.70;;
52934;SDS011;38802;50.198;19.796;2023-09-07T01:39:35;12.60;;;6.30;;
52934;SDS011;38802;50.198;19.796;2023-09-07T01:42:02;10.20;;;6.70;;
52934;SDS011;38802;50.198;19.796;2023-09-07T01:44:29;7.40;;;6.60;;
52934;SDS011;38802;50.198;19.796;2023-09-07T01:46:56;9.10;;;6.70;;
52934;SDS011;38802;50.198;19.796;2023-09-07T01:49:23;11.60;;;7.30;;
52934;SDS011;38802;50.198;19.796;2023-09-07T01:51:51;7.90;;;5.80;;
52934;SDS011;38802;50.198;19.796;2023-09-07T01:54:18;10.80;;;7.00;;
52934;SDS011;38802;50.198;19.796;2023-09-07T01:56:48;10.10;;;6.80;;
52934;SDS011;38802;50.198;19.796;2023-09-07T01:59:14;7.50;;;6.50;;
52934;SDS011;38802;50.198;19.796;2023-09-07T02:01:41;8.20;;;6.90;;
52934;SDS011;38802;50.198;19.796;2023-09-07T02:04:08;8.30;;;6.90;;
52934;SDS011;38802;50.198;19.796;2023-09-07T02:06:35;9.90;;;6.50;;
52934;SDS011;38802;50.198;19.796;2023-09-07T02:09:01;10.50;;;6.60;;
52934;SDS011;38802;50.198;19.796;2023-09-07T02:11:30;8.80;;;6.80;;
52934;SDS011;38802;50.198;19.796;2023-09-07T02:13:57;7.70;;;6.00;;
52934;SDS011;38802;50.198;19.796;2023-09-07T02:16:24;6.70;;;6.10;;
52934;SDS011;38802;50.198;19.796;2023-09-07T02:18:51;7.10;;;6.50;;
52934;SDS011;38802;50.198;19.796;2023-09-07T02:21:28;10.00;;;6.70;;
52934;SDS011;38802;50.198;19.796;2023-09-07T02:23:54;9.60;;;6.80;;
52934;SDS011;38802;50.198;19.796;2023-09-07T02:26:21;9.40;;;6.70;;
52934;SDS011;38802;50.198;19.796;2023-09-07T02:28:48;9.20;;;7.50;;
52934;SDS011;38802;50.198;19.796;2023-09-07T02:31:15;11.00;;;6.70;;
52934;SDS011;38802;50.198;19.796;2023-09-07T02:33:42;10.80;;;6.40;;
52934;SDS011;38802;50.198;19.796;2023-09-07T02:36:08;12.20;;;7.00;;
52934;SDS011;38802;50.198;19.796;2023-09-07T02:38:35;12.60;;;7.40;;
52934;SDS011;38802;50.198;19.796;2023-09-07T02:41:02;12.30;;;6.70;;
52934;SDS011;38802;50.198;19.796;2023-09-07T02:43:29;11.30;;;7.10;;
52934;SDS011;38802;50.198;19.796;2023-09-07T02:45:57;7.30;;;6.10;;
52934;SDS011;38802;50.198;19.796;2023-09-07T02:48:24;8.00;;;6.20;;
52934;SDS011;38802;50.198;19.796;2023-09-07T02:50:51;10.20;;;6.40;;
52934;SDS011;38802;50.198;19.796;2023-09-07T02:53:20;9.80;;;6.40;;
52934;SDS011;38802;50.198;19.796;2023-09-07T02:55:47;9.60;;;7.70;;
52934;SDS011;38802;50.198;19.796;2023-09-07T02:58:14;8.50;;;6.20;;
52934;SDS011;38802;50.198;19.796;2023-09-07T03:00:42;8.90;;;6.90;;
52934;SDS011;38802;50.198;19.796;2023-09-07T03:03:13;8.60;;;6.10;;
52934;SDS011;38802;50.198;19.796;2023-09-07T03:05:41;7.90;;;6.40;;
52934;SDS011;38802;50.198;19.796;2023-09-07T03:08:10;7.10;;;6.40;;
52934;SDS011;38802;50.198;19.796;2023-09-07T03:10:38;10.60;;;6.50;;
52934;SDS011;38802;50.198;19.796;2023-09-07T03:13:08;9.90;;;6.50;;
52934;SDS011;38802;50.198;19.796;2023-09-07T03:15:35;10.70;;;7.30;;
52934;SDS011;38802;50.198;19.796;2023-09-07T03:18:05;9.00;;;7.30;;
52934;SDS011;38802;50.198;19.796;2023-09-07T03:20:34;8.80;;;5.80;;
52934;SDS011;38802;50.198;19.796;2023-09-07T03:23:02;8.70;;;6.90;;
52934;SDS011;38802;50.198;19.796;2023-09-07T03:25:30;9.00;;;6.60;;
52934;SDS011;38802;50.198;19.796;2023-09-07T03:27:58;10.70;;;6.90;;
52934;SDS011;38802;50.198;19.796;2023-09-07T03:30:25;7.50;;;6.50;;
52934;SDS011;38802;50.198;19.796;2023-09-07T03:32:53;8.60;;;6.60;;
52934;SDS011;38802;50.198;19.796;2023-09-07T03:35:20;9.00;;;6.70;;
52934;SDS011;38802;50.198;19.796;2023-09-07T03:37:46;10.70;;;7.40;;
52934;SDS011;38802;50.198;19.796;2023-09-07T03:40:13;10.40;;;7.40;;
52934;SDS011;38802;50.198;19.796;2023-09-07T03:42:40;10.70;;;7.20;;
52934;SDS011;38802;50.198;19.796;2023-09-07T03:45:07;11.50;;;7.30;;
52934;SDS011;38802;50.198;19.796;2023-09-07T03:47:34;10.30;;;7.60;;
52934;SDS011;38802;50.198;19.796;2023-09-07T03:50:02;8.10;;;6.90;;
52934;SDS011;38802;50.198;19.796;2023-09-07T03:52:30;9.90;;;6.70;;
52934;SDS011;38802;50.198;19.796;2023-09-07T03:54:57;9.40;;;7.30;;
52934;SDS011;38802;50.198;19.796;2023-09-07T03:57:24;11.70;;;7.60;;
52934;SDS011;38802;50.198;19.796;2023-09-07T03:59:52;11.20;;;7.40;;
52934;SDS011;38802;50.198;19.796;2023-09-07T04:02:19;13.90;;;7.50;;
52934;SDS011;38802;50.198;19.796;2023-09-07T04:04:50;10.30;;;7.30;;
52934;SDS011;38802;50.198;19.796;2023-09-07T04:07:19;10.70;;;6.60;;
52934;SDS011;38802;50.198;19.796;2023-09-07T04:09:47;11.20;;;6.30;;
52934;SDS011;38802;50.198;19.796;2023-09-07T04:12:14;13.10;;;7.30;;
52934;SDS011;38802;50.198;19.796;2023-09-07T04:14:41;9.30;;;6.70;;
52934;SDS011;38802;50.198;19.796;2023-09-07T04:17:09;10.10;;;7.80;;
52934;SDS011;38802;50.198;19.796;2023-09-07T04:19:35;8.80;;;7.90;;
52934;SDS011;38802;50.198;19.796;2023-09-07T04:22:03;8.40;;;6.20;;
52934;SDS011;38802;50.198;19.796;2023-09-07T04:24:30;11.90;;;7.00;;
52934;SDS011;38802;50.198;19.796;2023-09-07T04:27:00;9.90;;;6.40;;
52934;SDS011;38802;50.198;19.796;2023-09-07T04:29:28;7.20;;;6.50;;
52934;SDS011;38802;50.198;19.796;2023-09-07T04:31:55;9.80;;;7.70;;
52934;SDS011;38802;50.198;19.796;2023-09-07T04:34:22;9.80;;;6.80;;
52934;SDS011;38802;50.198;19.796;2023-09-07T04:36:49;9.30;;;7.10;;
52934;SDS011;38802;50.198;19.796;2023-09-07T04:39:16;14.80;;;7.10;;
52934;SDS011;38802;50.198;19.796;2023-09-07T04:41:43;8.70;;;7.50;;
52934;SDS011;38802;50.198;19.796;2023-09-07T04:44:10;9.50;;;7.50;;
52934;SDS011;38802;50.198;19.796;2023-09-07T04:46:37;9.70;;;7.40;;
52934;SDS011;38802;50.198;19.796;2023-09-07T04:49:04;9.70;;;8.00;;
52934;SDS011;38802;50.198;19.796;2023-09-07T04:51:30;8.20;;;7.00;;
52934;SDS011;38802;50.198;19.796;2023-09-07T04:53:58;7.60;;;6.60;;
52934;SDS011;38802;50.198;19.796;2023-09-07T04:56:25;10.50;;;7.10;;
52934;SDS011;38802;50.198;19.796;2023-09-07T04:58:52;11.80;;;7.80;;
52934;SDS011;38802;50.198;19.796;2023-09-07T05:01:18;8.70;;;6.80;;
52934;SDS011;38802;50.198;19.796;2023-09-07T05:03:46;11.10;;;7.40;;
52934;SDS011;38802;50.198;19.796;2023-09-07T05:06:13;8.70;;;7.40;;
52934;SDS011;38802;50.198;19.796;2023-09-07T05:08:41;12.30;;;8.30;;
52934;SDS011;38802;50.198;19.796;2023-09-07T05:11:08;12.40;;;7.40;;
52934;SDS011;38802;50.198;19.796;2023-09-07T05:13:35;13.00;;;8.30;;
52934;SDS011;38802;50.198;19.796;2023-09-07T05:16:02;9.70;;;8.70;;
52934;SDS011;38802;50.198;19.796;2023-09-07T05:18:31;11.60;;;8.10;;
52934;SDS011;38802;50.198;19.796;2023-09-07T05:20:58;12.20;;;7.10;;
52934;SDS011;38802;50.198;19.796;2023-09-07T05:23:25;13.70;;;7.60;;
52934;SDS011;38802;50.198;19.796;2023-09-07T05:25:54;9.30;;;7.70;;
52934;SDS011;38802;50.198;19.796;2023-09-07T05:28:23;9.90;;;7.50;;
52934;SDS011;38802;50.198;19.796;2023-09-07T05:30:51;9.10;;;6.80;;
52934;SDS011;38802;50.198;19.796;2023-09-07T05:33:18;9.00;;;7.60;;
52934;SDS011;38802;50.198;19.796;2023-09-07T05:35:46;11.60;;;7.00;;
52934;SDS011;38802;50.198;19.796;2023-09-07T05:38:14;9.90;;;6.90;;
52934;SDS011;38802;50.198;19.796;2023-09-07T05:40:43;9.30;;;7.30;;
52934;SDS011;38802;50.198;19.796;2023-09-07T05:44:58;11.20;;;6.60;;
52934;SDS011;38802;50.198;19.796;2023-09-07T05:47:27;8.00;;;7.00;;
52934;SDS011;38802;50.198;19.796;2023-09-07T05:49:58;12.10;;;6.70;;
52934;SDS011;38802;50.198;19.796;2023-09-07T05:52:26;8.40;;;7.10;;
52934;SDS011;38802;50.198;19.796;2023-09-07T05:54:54;7.80;;;7.00;;
52934;SDS011;38802;50.198;19.796;2023-09-07T05:57:23;10.80;;;7.40;;
52934;SDS011;38802;50.198;19.796;2023-09-07T05:59:51;9.80;;;6.30;;
52934;SDS011;38802;50.198;19.796;2023-09-07T06:02:20;9.10;;;7.30;;
52934;SDS011;38802;50.198;19.796;2023-09-07T06:04:48;8.60;;;6.30;;
52934;SDS011;38802;50.198;19.796;2023-09-07T06:07:17;9.80;;;6.30;;
52934;SDS011;38802;50.198;19.796;2023-09-07T06:09:46;7.60;;;6.30;;
52934;SDS011;38802;50.198;19.796;2023-09-07T06:12:14;6.70;;;6.00;;
52934;SDS011;38802;50.198;19.796;2023-09-07T06:14:43;9.70;;;5.90;;
52934;SDS011;38802;50.198;19.796;2023-09-07T06:17:13;7.90;;;6.40;;
52934;SDS011;38802;50.198;19.796;2023-09-07T06:19:41;12.20;;;6.40;;
52934;SDS011;38802;50.198;19.796;2023-09-07T06:22:09;10.70;;;6.30;;
52934;SDS011;38802;50.198;19.796;2023-09-07T06:24:37;7.20;;;5.70;;
52934;SDS011;38802;50.198;19.796;2023-09-07T06:27:06;7.40;;;6.50;;
52934;SDS011;38802;50.198;19.796;2023-09-07T06:29:34;7.80;;;6.10;;
52934;SDS011;38802;50.198;19.796;2023-09-07T06:32:02;7.30;;;6.30;;
52934;SDS011;38802;50.198;19.796;2023-09-07T06:34:31;6.80;;;5.70;;
52934;SDS011;38802;50.198;19.796;2023-09-07T06:36:59;8.30;;;5.80;;
52934;SDS011;38802;50.198;19.796;2023-09-07T06:39:28;7.00;;;6.10;;
52934;SDS011;38802;50.198;19.796;2023-09-07T06:41:56;8.90;;;6.20;;
52934;SDS011;38802;50.198;19.796;2023-09-07T06:44:29;7.20;;;6.00;;
52934;SDS011;38802;50.198;19.796;2023-09-07T06:46:58;9.10;;;6.10;;
52934;SDS011;38802;50.198;19.796;2023-09-07T06:49:26;7.10;;;5.80;;
52934;SDS011;38802;50.198;19.796;2023-09-07T06:51:57;8.10;;;6.20;;
52934;SDS011;38802;50.198;19.796;2023-09-07T06:54:27;8.10;;;6.20;;
52934;SDS011;38802;50.198;19.796;2023-09-07T06:56:57;9.90;;;5.70;;
52934;SDS011;38802;50.198;19.796;2023-09-07T06:59:25;8.10;;;5.90;;
52934;SDS011;38802;50.198;19.796;2023-09-07T07:01:54;7.80;;;4.80;;
52934;SDS011;38802;50.198;19.796;2023-09-07T07:04:22;8.20;;;5.20;;
52934;SDS011;38802;50.198;19.796;2023-09-07T07:06:51;6.30;;;5.60;;
52934;SDS011;38802;50.198;19.796;2023-09-07T07:09:19;7.10;;;5.40;;
52934;SDS011;38802;50.198;19.796;2023-09-07T07:11:47;7.00;;;6.00;;
52934;SDS011;38802;50.198;19.796;2023-09-07T07:14:17;6.60;;;6.00;;
52934;SDS011;38802;50.198;19.796;2023-09-07T07:16:45;7.20;;;6.50;;
52934;SDS011;38802;50.198;19.796;2023-09-07T07:19:14;8.10;;;6.60;;
52934;SDS011;38802;50.198;19.796;2023-09-07T07:21:42;6.80;;;5.90;;
52934;SDS011;38802;50.198;19.796;2023-09-07T07:24:11;7.40;;;6.00;;
52934;SDS011;38802;50.198;19.796;2023-09-07T07:26:39;10.60;;;6.10;;
52934;SDS011;38802;50.198;19.796;2023-09-07T07:29:07;6.80;;;6.00;;
52934;SDS011;38802;50.198;19.796;2023-09-07T07:31:37;6.70;;;6.00;;
52934;SDS011;38802;50.198;19.796;2023-09-07T07:34:06;11.50;;;6.00;;
52934;SDS011;38802;50.198;19.796;2023-09-07T07:36:34;8.20;;;6.50;;
52934;SDS011;38802;50.198;19.796;2023-09-07T07:39:04;7.40;;;6.10;;
52934;SDS011;38802;50.198;19.796;2023-09-07T07:41:37;8.30;;;6.50;;
52934;SDS011;38802;50.198;19.796;2023-09-07T07:44:09;8.80;;;5.80;;
52934;SDS011;38802;50.198;19.796;2023-09-07T07:46:37;7.30;;;6.10;;
52934;SDS011;38802;50.198;19.796;2023-09-07T07:49:05;6.70;;;6.00;;
52934;SDS011;38802;50.198;19.796;2023-09-07T07:51:33;6.70;;;6.00;;
52934;SDS011;38802;50.198;19.796;2023-09-07T08:05:22;8.20;;;6.50;;
52934;SDS011;38802;50.198;19.796;2023-09-07T08:07:50;7.50;;;6.80;;
52934;SDS011;38802;50.198;19.796;2023-09-07T08:10:21;7.20;;;6.00;;
52934;SDS011;38802;50.198;19.796;2023-09-07T08:12:56;8.20;;;6.10;;
52934;SDS011;38802;50.198;19.796;2023-09-07T08:15:25;9.50;;;5.90;;
52934;SDS011;38802;50.198;19.796;2023-09-07T08:17:54;6.90;;;5.50;;
52934;SDS011;38802;50.198;19.796;2023-09-07T08:20:24;7.00;;;6.30;;
52934;SDS011;38802;50.198;19.796;2023-09-07T08:22:54;9.40;;;6.20;;
52934;SDS011;38802;50.198;19.796;2023-09-07T08:25:22;6.00;;;5.50;;
52934;SDS011;38802;50.198;19.796;2023-09-07T08:27:51;6.30;;;5.40;;
52934;SDS011;38802;50.198;19.796;2023-09-07T08:30:22;7.60;;;5.20;;
52934;SDS011;38802;50.198;19.796;2023-09-07T08:32:52;7.70;;;5.50;;
52934;SDS011;38802;50.198;19.796;2023-09-07T08:35:21;7.10;;;6.30;;
52934;SDS011;38802;50.198;19.796;2023-09-07T08:37:54;7.20;;;5.40;;
52934;SDS011;38802;50.198;19.796;2023-09-07T08:40:26;5.80;;;5.00;;
52934;SDS011;38802;50.198;19.796;2023-09-07T08:42:57;6.60;;;5.50;;
52934;SDS011;38802;50.198;19.796;2023-09-07T08:45:27;9.10;;;5.50;;
52934;SDS011;38802;50.198;19.796;2023-09-07T08:47:58;5.70;;;5.10;;
52934;SDS011;38802;50.198;19.796;2023-09-07T08:50:27;7.90;;;5.50;;
52934;SDS011;38802;50.198;19.796;2023-09-07T08:52:56;6.50;;;5.60;;
52934;SDS011;38802;50.198;19.796;2023-09-07T08:55:27;6.20;;;5.60;;
52934;SDS011;38802;50.198;19.796;2023-09-07T08:57:55;6.90;;;5.30;;
52934;SDS011;38802;50.198;19.796;2023-09-07T09:00:24;10.60;;;5.40;;
52934;SDS011;38802;50.198;19.796;2023-09-07T09:02:52;7.80;;;4.70;;
52934;SDS011;38802;50.198;19.796;2023-09-07T09:05:24;6.10;;;5.40;;
52934;SDS011;38802;50.198;19.796;2023-09-07T09:08:03;7.60;;;5.90;;
52934;SDS011;38802;50.198;19.796;2023-09-07T09:10:32;8.00;;;5.80;;
52934;SDS011;38802;50.198;19.796;2023-09-07T09:13:00;7.50;;;5.10;;
52934;SDS011;38802;50.198;19.796;2023-09-07T09:15:28;11.40;;;6.20;;
52934;SDS011;38802;50.198;19.796;2023-09-07T09:17:56;9.40;;;5.20;;
52934;SDS011;38802;50.198;19.796;2023-09-07T09:20:25;11.60;;;5.00;;
52934;SDS011;38802;50.198;19.796;2023-09-07T09:22:56;6.40;;;4.30;;
52934;SDS011;38802;50.198;19.796;2023-09-07T09:25:24;6.10;;;5.50;;
52934;SDS011;38802;50.198;19.796;2023-09-07T09:27:54;7.90;;;5.00;;
52934;SDS011;38802;50.198;19.796;2023-09-07T09:30:22;5.60;;;4.80;;
52934;SDS011;38802;50.198;19.796;2023-09-07T09:32:51;5.20;;;4.60;;
52934;SDS011;38802;50.198;19.796;2023-09-07T09:35:19;8.10;;;5.10;;
52934;SDS011;38802;50.198;19.796;2023-09-07T09:37:48;7.00;;;4.40;;
52934;SDS011;38802;50.198;19.796;2023-09-07T09:40:16;6.30;;;5.10;;
52934;SDS011;38802;50.198;19.796;2023-09-07T09:42:45;5.00;;;4.60;;
52934;SDS011;38802;50.198;19.796;2023-09-07T09:45:14;7.30;;;4.40;;
52934;SDS011;38802;50.198;19.796;2023-09-07T09:47:42;4.70;;;4.30;;
52934;SDS011;38802;50.198;19.796;2023-09-07T09:50:11;7.90;;;5.10;;
52934;SDS011;38802;50.198;19.796;2023-09-07T09:52:39;6.10;;;4.20;;
52934;SDS011;38802;50.198;19.796;2023-09-07T09:55:08;5.50;;;4.20;;
52934;SDS011;38802;50.198;19.796;2023-09-07T09:57:36;10.50;;;5.30;;
52934;SDS011;38802;50.198;19.796;2023-09-07T10:00:05;7.30;;;4.10;;
52934;SDS011;38802;50.198;19.796;2023-09-07T10:05:25;4.70;;;3.90;;
52934;SDS011;38802;50.198;19.796;2023-09-07T10:07:59;5.90;;;4.60;;
52934;SDS011;38802;50.198;19.796;2023-09-07T10:10:36;5.10;;;4.10;;
52934;SDS011;38802;50.198;19.796;2023-09-07T10:13:05;5.80;;;4.90;;
52934;SDS011;38802;50.198;19.796;2023-09-07T10:15:33;7.70;;;4.10;;
52934;SDS011;38802;50.198;19.796;2023-09-07T10:18:10;5.80;;;3.40;;
52934;SDS011;38802;50.198;19.796;2023-09-07T10:23:19;6.90;;;4.50;;
52934;SDS011;38802;50.198;19.796;2023-09-07T10:25:51;5.60;;;4.70;;
52934;SDS011;38802;50.198;19.796;2023-09-07T10:28:22;5.90;;;4.70;;
52934;SDS011;38802;50.198;19.796;2023-09-07T10:31:02;8.50;;;4.80;;
52934;SDS011;38802;50.198;19.796;2023-09-07T10:33:34;4.60;;;3.90;;
52934;SDS011;38802;50.198;19.796;2023-09-07T10:36:05;6.80;;;4.70;;
52934;SDS011;38802;50.198;19.796;2023-09-07T10:38:34;8.00;;;4.50;;
52934;SDS011;38802;50.198;19.796;2023-09-07T10:41:03;10.40;;;4.70;;
52934;SDS011;38802;50.198;19.796;2023-09-07T10:43:35;6.30;;;4.20;;
52934;SDS011;38802;50.198;19.796;2023-09-07T10:46:20;6.10;;;4.40;;
52934;SDS011;38802;50.198;19.796;2023-09-07T10:48:50;4.90;;;4.20;;
52934;SDS011;38802;50.198;19.796;2023-09-07T10:51:19;9.30;;;4.20;;
52934;SDS011;38802;50.198;19.796;2023-09-07T10:53:48;5.50;;;4.60;;
52934;SDS011;38802;50.198;19.796;2023-09-07T10:56:16;4.60;;;4.20;;
52934;SDS011;38802;50.198;19.796;2023-09-07T10:58:45;4.90;;;4.50;;
52934;SDS011;38802;50.198;19.796;2023-09-07T11:01:14;4.30;;;3.80;;
52934;SDS011;38802;50.198;19.796;2023-09-07T11:03:44;7.20;;;4.10;;
52934;SDS011;38802;50.198;19.796;2023-09-07T11:06:16;4.10;;;3.80;;
52934;SDS011;38802;50.198;19.796;2023-09-07T11:08:47;8.60;;;4.40;;
52934;SDS011;38802;50.198;19.796;2023-09-07T11:11:15;4.80;;;3.70;;
52934;SDS011;38802;50.198;19.796;2023-09-07T11:13:44;4.30;;;3.90;;
52934;SDS011;38802;50.198;19.796;2023-09-07T11:16:12;7.70;;;3.90;;
52934;SDS011;38802;50.198;19.796;2023-09-07T11:18:41;6.30;;;3.70;;
52934;SDS011;38802;50.198;19.796;2023-09-07T11:21:09;5.40;;;3.90;;
52934;SDS011;38802;50.198;19.796;2023-09-07T11:23:38;5.70;;;3.70;;
52934;SDS011;38802;50.198;19.796;2023-09-07T11:26:10;4.50;;;4.00;;
52934;SDS011;38802;50.198;19.796;2023-09-07T11:28:38;5.10;;;4.60;;
52934;SDS011;38802;50.198;19.796;2023-09-07T11:31:06;12.10;;;9.00;;
52934;SDS011;38802;50.198;19.796;2023-09-07T11:33:36;6.30;;;4.10;;
52934;SDS011;38802;50.198;19.796;2023-09-07T11:36:05;4.40;;;4.00;;
52934;SDS011;38802;50.198;19.796;2023-09-07T11:38:37;5.60;;;3.90;;
52934;SDS011;38802;50.198;19.796;2023-09-07T11:41:06;6.40;;;5.30;;
52934;SDS011;38802;50.198;19.796;2023-09-07T11:43:34;6.10;;;5.50;;
52934;SDS011;38802;50.198;19.796;2023-09-07T11:46:02;4.40;;;4.00;;
52934;SDS011;38802;50.198;19.796;2023-09-07T11:48:31;4.60;;;4.20;;
52934;SDS011;38802;50.198;19.796;2023-09-07T11:51:01;5.60;;;3.80;;
52934;SDS011;38802;50.198;19.796;2023-09-07T11:53:30;5.00;;;4.60;;
52934;SDS011;38802;50.198;19.796;2023-09-07T11:55:59;4.70;;;3.60;;
52934;SDS011;38802;50.198;19.796;2023-09-07T11:58:27;3.70;;;3.30;;
52934;SDS011;38802;50.198;19.796;2023-09-07T12:00:57;5.90;;;3.90;;
52934;SDS011;38802;50.198;19.796;2023-09-07T12:03:26;8.40;;;6.50;;
52934;SDS011;38802;50.198;19.796;2023-09-07T12:05:54;4.90;;;4.50;;
52934;SDS011;38802;50.198;19.796;2023-09-07T12:08:22;29.60;;;17.80;;
52934;SDS011;38802;50.198;19.796;2023-09-07T12:10:50;9.70;;;8.10;;
52934;SDS011;38802;50.198;19.796;2023-09-07T12:13:21;4.90;;;4.30;;
52934;SDS011;38802;50.198;19.796;2023-09-07T12:15:50;5.00;;;3.00;;
52934;SDS011;38802;50.198;19.796;2023-09-07T12:18:18;8.50;;;5.60;;
52934;SDS011;38802;50.198;19.796;2023-09-07T12:20:46;9.00;;;6.30;;
52934;SDS011;38802;50.198;19.796;2023-09-07T12:23:15;7.80;;;4.00;;
52934;SDS011;38802;50.198;19.796;2023-09-07T12:25:43;4.20;;;3.00;;
52934;SDS011;38802;50.198;19.796;2023-09-07T12:28:11;4.90;;;3.60;;
52934;SDS011;38802;50.198;19.796;2023-09-07T12:30:40;4.00;;;3.60;;
52934;SDS011;38802;50.198;19.796;2023-09-07T12:33:12;4.00;;;3.60;;
52934;SDS011;38802;50.198;19.796;2023-09-07T12:35:40;4.50;;;4.10;;
52934;SDS011;38802;50.198;19.796;2023-09-07T12:38:08;6.10;;;3.30;;
52934;SDS011;38802;50.198;19.796;2023-09-07T12:40:38;3.90;;;3.50;;
52934;SDS011;38802;50.198;19.796;2023-09-07T12:43:07;5.10;;;3.90;;
52934;SDS011;38802;50.198;19.796;2023-09-07T12:45:35;7.30;;;3.80;;
52934;SDS011;38802;50.198;19.796;2023-09-07T12:48:04;6.10;;;3.90;;
52934;SDS011;38802;50.198;19.796;2023-09-07T12:50:32;5.40;;;4.30;;
52934;SDS011;38802;50.198;19.796;2023-09-07T12:53:00;7.90;;;4.50;;
52934;SDS011;38802;50.198;19.796;2023-09-07T12:55:28;5.40;;;4.00;;
52934;SDS011;38802;50.198;19.796;2023-09-07T12:57:57;5.90;;;4.50;;
52934;SDS011;38802;50.198;19.796;2023-09-07T13:00:26;5.40;;;4.60;;
52934;SDS011;38802;50.198;19.796;2023-09-07T13:02:54;8.40;;;3.90;;
52934;SDS011;38802;50.198;19.796;2023-09-07T13:05:24;6.80;;;3.90;;
52934;SDS011;38802;50.198;19.796;2023-09-07T13:07:52;3.30;;;3.00;;
52934;SDS011;38802;50.198;19.796;2023-09-07T13:10:22;4.40;;;3.40;;
52934;SDS011;38802;50.198;19.796;2023-09-07T13:12:50;4.50;;;3.90;;
52934;SDS011;38802;50.198;19.796;2023-09-07T13:18:03;5.30;;;4.20;;
52934;SDS011;38802;50.198;19.796;2023-09-07T13:20:31;7.50;;;4.30;;
52934;SDS011;38802;50.198;19.796;2023-09-07T13:22:59;4.50;;;4.10;;
52934;SDS011;38802;50.198;19.796;2023-09-07T13:25:28;5.70;;;4.10;;
52934;SDS011;38802;50.198;19.796;2023-09-07T13:27:56;5.70;;;3.90;;
52934;SDS011;38802;50.198;19.796;2023-09-07T13:30:29;7.00;;;4.40;;
52934;SDS011;38802;50.198;19.796;2023-09-07T13:32:57;6.30;;;5.00;;
52934;SDS011;38802;50.198;19.796;2023-09-07T13:35:25;5.00;;;4.00;;
52934;SDS011;38802;50.198;19.796;2023-09-07T13:37:54;6.80;;;5.50;;
52934;SDS011;38802;50.198;19.796;2023-09-07T13:40:23;8.30;;;7.50;;
52934;SDS011;38802;50.198;19.796;2023-09-07T13:42:52;6.80;;;6.00;;
52934;SDS011;38802;50.198;19.796;2023-09-07T13:45:21;5.10;;;4.40;;
52934;SDS011;38802;50.198;19.796;2023-09-07T13:47:49;4.80;;;4.20;;
52934;SDS011;38802;50.198;19.796;2023-09-07T13:50:17;8.80;;;5.10;;
52934;SDS011;38802;50.198;19.796;2023-09-07T13:52:46;6.80;;;4.50;;
52934;SDS011;38802;50.198;19.796;2023-09-07T13:55:15;7.40;;;5.30;;
52934;SDS011;38802;50.198;19.796;2023-09-07T13:57:44;6.70;;;4.60;;
52934;SDS011;38802;50.198;19.796;2023-09-07T14:00:12;6.40;;;4.00;;
52934;SDS011;38802;50.198;19.796;2023-09-07T14:02:40;5.50;;;4.40;;
52934;SDS011;38802;50.198;19.796;2023-09-07T14:05:09;5.20;;;4.00;;
52934;SDS011;38802;50.198;19.796;2023-09-07T14:07:40;5.10;;;3.80;;
52934;SDS011;38802;50.198;19.796;2023-09-07T14:10:08;7.90;;;4.50;;
52934;SDS011;38802;50.198;19.796;2023-09-07T14:12:42;6.70;;;3.90;;
52934;SDS011;38802;50.198;19.796;2023-09-07T14:15:11;7.80;;;4.10;;
52934;SDS011;38802;50.198;19.796;2023-09-07T14:17:40;4.70;;;4.20;;
52934;SDS011;38802;50.198;19.796;2023-09-07T14:20:08;6.00;;;4.10;;
52934;SDS011;38802;50.198;19.796;2023-09-07T14:22:37;7.60;;;3.50;;
52934;SDS011;38802;50.198;19.796;2023-09-07T14:25:05;5.50;;;3.70;;
52934;SDS011;38802;50.198;19.796;2023-09-07T14:27:35;6.60;;;4.30;;
52934;SDS011;38802;50.198;19.796;2023-09-07T14:30:03;6.90;;;4.70;;
52934;SDS011;38802;50.198;19.796;2023-09-07T14:32:31;6.60;;;4.20;;
52934;SDS011;38802;50.198;19.796;2023-09-07T14:35:00;5.40;;;4.70;;
52934;SDS011;38802;50.198;19.796;2023-09-07T14:37:28;6.50;;;4.50;;
52934;SDS011;38802;50.198;19.796;2023-09-07T14:39:56;5.40;;;4.60;;
52934;SDS011;38802;50.198;19.796;2023-09-07T14:42:27;6.80;;;4.60;;
52934;SDS011;38802;50.198;19.796;2023-09-07T14:44:55;5.40;;;4.30;;
52934;SDS011;38802;50.198;19.796;2023-09-07T14:47:25;7.40;;;4.30;;
52934;SDS011;38802;50.198;19.796;2023-09-07T14:49:54;5.70;;;5.20;;
52934;SDS011;38802;50.198;19.796;2023-09-07T14:52:22;8.10;;;5.30;;
52934;SDS011;38802;50.198;19.796;2023-09-07T14:54:53;5.40;;;4.90;;
52934;SDS011;38802;50.198;19.796;2023-09-07T14:57:21;7.00;;;4.80;;
52934;SDS011;38802;50.198;19.796;2023-09-07T14:59:49;7.60;;;4.60;;
52934;SDS011;38802;50.198;19.796;2023-09-07T15:02:18;5.50;;;4.50;;
52934;SDS011;38802;50.198;19.796;2023-09-07T15:04:46;6.20;;;5.30;;
52934;SDS011;38802;50.198;19.796;2023-09-07T15:07:14;7.40;;;5.20;;
52934;SDS011;38802;50.198;19.796;2023-09-07T15:09:43;5.00;;;4.40;;
52934;SDS011;38802;50.198;19.796;2023-09-07T15:12:11;7.40;;;4.70;;
52934;SDS011;38802;50.198;19.796;2023-09-07T15:14:39;6.10;;;5.00;;